Abingdon, VA

04:02 AM EST am 24. Januar 2017 (GMT -0500)
Country Club Estates | | Change Station

Höhe 1990 ft 36.69 °N, 81.97 °W | Updated 9 seconds ago

Bedeckt
Bedeckt
42.5 °F
gefühlte 42 °F
N
0.0
Wind Wechselnd Wind aus Nord
Gusts 0.0 mph

Heute
Max. -- | schwach -- °F
--% Regenrisiko
Gestern
Max. -- | schwach -- °F
Precip. -- inch
Druck 29.65 inch
Sichtweite 10.0 Meilen
Wolken Bedeckt 1500 ft
Windchill 42 °F
Taupunkt 41 °F
Feuchtigkeit 94%
Regen 0.02 inch
Schneehöhe Nicht verfügbar..
7:35 AM 5:45 PM
Letztes Viertel, 13% visible
METAR KVJI 240855Z AUTO 29010KT 10SM OVC015 07/05 A2965 RMK AO2 T00720053
Druck 29.65 inch
Sichtweite 10.0 Meilen
Wolken Bedeckt 1500 ft
Windchill 42 °F
Taupunkt 41 °F
Feuchtigkeit 94%
Regen 0.02 inch
Schneehöhe Nicht verfügbar..
7:35 AM 5:45 PM
Letztes Viertel, 13% visible
METAR KVJI 240855Z AUTO 29010KT 10SM OVC015 07/05 A2965 RMK AO2 T00720053

Get Your Daily Forecast Email!

Thanks for signing up!

Be on the lookout for a verification email in your inbox.

You'll start receiving the daily forecast at 8 AM.

×

10-Day Weather Forecast

Almanac

Astronomie

Jan. 24, 2017 Aufgang Untergang
Genaue Zeit
Bürgerliche Dämmerung
Nautische Dämmerung
Astronomische Dämmerung
Mond
Länge des sichtbaren Lichts
Tageslänge
Tomorrow will be .
, % of the Moon is Illuminated

Heutige Rekorde

State Highs State Lows

Community

WunderPhotos

Upload Photos

1,962,540 Fotos hochgeladen!

WunderBlog® & News

Nearby

Luftqualität

  Luftqualität LQ Index Schadstoff
Not available.

Schneehöhe

Station Depth Höhe

Erdbebenaktivität

Stadt Distance Mag. Time & Date
Minimum magnitude displayed is 2.5.

küstennahe Wassertemperaturen

Ort Temperatur

Stations

Wetterstationen in der Umgebung

Stationsstandort Temp. Windchill Taupunkt Feuchtigkeit Wind Precip. Höhe Aktualisiert Art
                   

Watches & Warnings

There are currently no watches in effect.